sensor_id;sensor_type;location;lat;lon;timestamp;pressure;altitude;pressure_sealevel;temperature;humidity
25947;BME280;13745;51.470;9.894;2023-04-10T00:00:37;100099.50;;;11.39;57.01
25947;BME280;13745;51.470;9.894;2023-04-10T00:03:24;100102.13;;;11.36;57.00
25947;BME280;13745;51.470;9.894;2023-04-10T00:06:10;100102.13;;;11.34;57.11
25947;BME280;13745;51.470;9.894;2023-04-10T00:08:55;100093.47;;;11.31;57.17
25947;BME280;13745;51.470;9.894;2023-04-10T00:11:40;100090.88;;;11.31;57.42
25947;BME280;13745;51.470;9.894;2023-04-10T00:14:27;100088.28;;;11.31;57.58
25947;BME280;13745;51.470;9.894;2023-04-10T00:17:12;100096.94;;;11.31;57.45
25947;BME280;13745;51.470;9.894;2023-04-10T00:19:57;100095.19;;;11.32;57.49
25947;BME280;13745;51.470;9.894;2023-04-10T00:22:43;100092.63;;;11.30;57.46
25947;BME280;13745;51.470;9.894;2023-04-10T00:25:28;100097.81;;;11.29;57.46
25947;BME280;13745;51.470;9.894;2023-04-10T00:28:13;100102.16;;;11.27;57.35
25947;BME280;13745;51.470;9.894;2023-04-10T00:31:01;100102.16;;;11.23;57.53
25947;BME280;13745;51.470;9.894;2023-04-10T00:33:46;100110.81;;;11.22;57.57
25947;BME280;13745;51.470;9.894;2023-04-10T00:36:31;100113.44;;;11.18;57.38
25947;BME280;13745;51.470;9.894;2023-04-10T00:39:16;100115.16;;;11.14;57.39
25947;BME280;13745;51.470;9.894;2023-04-10T00:42:01;100107.44;;;11.10;57.38
25947;BME280;13745;51.470;9.894;2023-04-10T00:44:46;100111.75;;;11.05;57.40
25947;BME280;13745;51.470;9.894;2023-04-10T00:47:33;100116.09;;;11.01;57.62
25947;BME280;13745;51.470;9.894;2023-04-10T00:50:20;100109.19;;;10.97;57.96
25947;BME280;13745;51.470;9.894;2023-04-10T00:53:06;100118.72;;;10.93;57.67
25947;BME280;13745;51.470;9.894;2023-04-10T00:55:51;100110.91;;;10.92;57.95
25947;BME280;13745;51.470;9.894;2023-04-10T00:58:37;100110.94;;;10.87;58.03
25947;BME280;13745;51.470;9.894;2023-04-10T01:01:22;100110.06;;;10.84;57.80
25947;BME280;13745;51.470;9.894;2023-04-10T01:04:08;100108.38;;;10.78;58.13
25947;BME280;13745;51.470;9.894;2023-04-10T01:06:58;100101.47;;;10.73;58.11
25947;BME280;13745;51.470;9.894;2023-04-10T01:09:48;100100.63;;;10.71;58.31
25947;BME280;13745;51.470;9.894;2023-04-10T01:12:47;100097.16;;;10.67;58.58
25947;BME280;13745;51.470;9.894;2023-04-10T01:15:41;100098.91;;;10.63;58.56
25947;BME280;13745;51.470;9.894;2023-04-10T01:18:32;100092.88;;;10.60;58.60
25947;BME280;13745;51.470;9.894;2023-04-10T01:21:20;100090.28;;;10.55;58.55
25947;BME280;13745;51.470;9.894;2023-04-10T01:24:17;100093.72;;;10.54;58.71
25947;BME280;13745;51.470;9.894;2023-04-10T01:27:11;100097.19;;;10.52;58.88
25947;BME280;13745;51.470;9.894;2023-04-10T01:30:01;100090.28;;;10.52;58.61
25947;BME280;13745;51.470;9.894;2023-04-10T01:32:49;100102.38;;;10.52;58.94
25947;BME280;13745;51.470;9.894;2023-04-10T01:35:40;100109.28;;;10.50;58.93
25947;BME280;13745;51.470;9.894;2023-04-10T01:38:28;100109.31;;;10.45;58.40
25947;BME280;13745;51.470;9.894;2023-04-10T01:41:14;100110.19;;;10.43;58.55
25947;BME280;13745;51.470;9.894;2023-04-10T01:44:02;100109.31;;;10.34;58.86
25947;BME280;13745;51.470;9.894;2023-04-10T01:46:49;100108.44;;;10.29;58.60
25947;BME280;13745;51.470;9.894;2023-04-10T01:49:37;100110.16;;;10.24;58.99
25947;BME280;13745;51.470;9.894;2023-04-10T01:52:27;100101.50;;;10.19;58.90
25947;BME280;13745;51.470;9.894;2023-04-10T01:55:26;100098.91;;;10.14;59.30
25947;BME280;13745;51.470;9.894;2023-04-10T01:58:17;100091.16;;;10.11;59.48
25947;BME280;13745;51.470;9.894;2023-04-10T02:01:02;100104.09;;;10.11;59.52
25947;BME280;13745;51.470;9.894;2023-04-10T02:03:49;100106.69;;;10.10;59.34
25947;BME280;13745;51.470;9.894;2023-04-10T02:06:40;100104.94;;;10.07;59.88
25947;BME280;13745;51.470;9.894;2023-04-10T02:09:34;100103.25;;;10.09;59.62
25947;BME280;13745;51.470;9.894;2023-04-10T02:12:25;100093.72;;;10.08;59.99
25947;BME280;13745;51.470;9.894;2023-04-10T02:15:15;100094.59;;;10.06;59.59
25947;BME280;13745;51.470;9.894;2023-04-10T02:18:03;100098.03;;;10.06;59.83
25947;BME280;13745;51.470;9.894;2023-04-10T02:20:51;100092.88;;;10.05;59.95
25947;BME280;13745;51.470;9.894;2023-04-10T02:23:36;100085.09;;;10.05;59.97
25947;BME280;13745;51.470;9.894;2023-04-10T02:26:22;100089.41;;;10.07;60.21
25947;BME280;13745;51.470;9.894;2023-04-10T02:29:07;100092.88;;;10.06;59.96
25947;BME280;13745;51.470;9.894;2023-04-10T02:31:52;100090.28;;;10.08;59.99
25947;BME280;13745;51.470;9.894;2023-04-10T02:34:37;100085.97;;;10.07;60.29
25947;BME280;13745;51.470;9.894;2023-04-10T02:37:24;100085.97;;;10.07;60.49
25947;BME280;13745;51.470;9.894;2023-04-10T02:40:10;100079.91;;;10.05;60.03
25947;BME280;13745;51.470;9.894;2023-04-10T02:43:04;100085.94;;;10.01;60.00
25947;BME280;13745;51.470;9.894;2023-04-10T02:45:49;100083.38;;;9.98;59.74
25947;BME280;13745;51.470;9.894;2023-04-10T02:48:44;100088.56;;;9.95;60.08
25947;BME280;13745;51.470;9.894;2023-04-10T02:51:33;100081.63;;;9.89;59.98
25947;BME280;13745;51.470;9.894;2023-04-10T02:54:20;100081.66;;;9.86;60.31
25947;BME280;13745;51.470;9.894;2023-04-10T02:57:06;100083.34;;;9.84;60.03
25947;BME280;13745;51.470;9.894;2023-04-10T02:59:51;100084.22;;;9.80;60.09
25947;BME280;13745;51.470;9.894;2023-04-10T03:02:38;100078.19;;;9.78;60.12
25947;BME280;13745;51.470;9.894;2023-04-10T03:05:31;100077.28;;;9.76;60.24
25947;BME280;13745;51.470;9.894;2023-04-10T03:08:17;100074.72;;;9.73;60.24
25947;BME280;13745;51.470;9.894;2023-04-10T03:11:05;100072.13;;;9.70;60.72
25947;BME280;13745;51.470;9.894;2023-04-10T03:13:51;100072.13;;;9.70;60.80
25947;BME280;13745;51.470;9.894;2023-04-10T03:16:36;100070.38;;;9.67;60.49
25947;BME280;13745;51.470;9.894;2023-04-10T03:19:21;100066.94;;;9.65;60.42
25947;BME280;13745;51.470;9.894;2023-04-10T03:22:08;100060.91;;;9.62;60.85
25947;BME280;13745;51.470;9.894;2023-04-10T03:24:54;100069.53;;;9.61;60.57
25947;BME280;13745;51.470;9.894;2023-04-10T03:27:41;100066.06;;;9.57;60.89
25947;BME280;13745;51.470;9.894;2023-04-10T03:30:26;100064.34;;;9.56;60.38
25947;BME280;13745;51.470;9.894;2023-04-10T03:33:11;100061.72;;;9.51;60.82
25947;BME280;13745;51.470;9.894;2023-04-10T03:35:56;100058.28;;;9.51;60.65
25947;BME280;13745;51.470;9.894;2023-04-10T03:38:41;100059.16;;;9.47;60.78
25947;BME280;13745;51.470;9.894;2023-04-10T03:41:26;100052.25;;;9.44;60.67
25947;BME280;13745;51.470;9.894;2023-04-10T03:44:13;100058.25;;;9.40;61.07
25947;BME280;13745;51.470;9.894;2023-04-10T03:46:58;100056.53;;;9.36;60.97
25947;BME280;13745;51.470;9.894;2023-04-10T03:49:43;100049.63;;;9.32;61.15
25947;BME280;13745;51.470;9.894;2023-04-10T03:52:29;100045.31;;;9.28;60.92
25947;BME280;13745;51.470;9.894;2023-04-10T03:55:14;100047.88;;;9.26;60.87
25947;BME280;13745;51.470;9.894;2023-04-10T03:58:02;100046.19;;;9.27;61.41
25947;BME280;13745;51.470;9.894;2023-04-10T04:00:49;100046.16;;;9.24;61.04
25947;BME280;13745;51.470;9.894;2023-04-10T04:03:42;100042.69;;;9.25;61.37
25947;BME280;13745;51.470;9.894;2023-04-10T04:07:03;100040.13;;;9.22;60.92
25947;BME280;13745;51.470;9.894;2023-04-10T04:10:13;100053.06;;;9.19;61.09
25947;BME280;13745;51.470;9.894;2023-04-10T04:13:19;100048.72;;;9.15;61.36
25947;BME280;13745;51.470;9.894;2023-04-10T04:16:26;100047.84;;;9.11;61.42
25947;BME280;13745;51.470;9.894;2023-04-10T04:19:26;100039.22;;;9.11;61.70
25947;BME280;13745;51.470;9.894;2023-04-10T04:22:27;100037.47;;;9.10;61.84
25947;BME280;13745;51.470;9.894;2023-04-10T04:25:31;100040.91;;;9.09;61.77
25947;BME280;13745;51.470;9.894;2023-04-10T04:28:23;100034.88;;;9.07;61.12
25947;BME280;13745;51.470;9.894;2023-04-10T04:31:28;100038.34;;;9.06;61.48
25947;BME280;13745;51.470;9.894;2023-04-10T04:34:34;100045.25;;;9.02;61.20
25947;BME280;13745;51.470;9.894;2023-04-10T04:37:41;100047.78;;;9.00;61.35
25947;BME280;13745;51.470;9.894;2023-04-10T04:40:55;100055.53;;;9.00;61.30
25947;BME280;13745;51.470;9.894;2023-04-10T04:44:09;100059.00;;;8.98;61.10
25947;BME280;13745;51.470;9.894;2023-04-10T04:47:17;100052.97;;;8.96;61.77
25947;BME280;13745;51.470;9.894;2023-04-10T04:50:21;100057.28;;;8.97;61.28
25947;BME280;13745;51.470;9.894;2023-04-10T04:53:31;100058.13;;;8.97;61.75
25947;BME280;13745;51.470;9.894;2023-04-10T04:56:25;100054.69;;;8.95;61.66
25947;BME280;13745;51.470;9.894;2023-04-10T04:59:45;100061.56;;;8.95;61.79
25947;BME280;13745;51.470;9.894;2023-04-10T05:03:00;100064.19;;;9.04;61.18
25947;BME280;13745;51.470;9.894;2023-04-10T05:05:51;100057.22;;;8.92;61.53
25947;BME280;13745;51.470;9.894;2023-04-10T05:08:55;100053.78;;;8.90;62.08
25947;BME280;13745;51.470;9.894;2023-04-10T05:11:47;100056.41;;;8.95;61.99
25947;BME280;13745;51.470;9.894;2023-04-10T05:14:53;100057.28;;;8.97;61.31
25947;BME280;13745;51.470;9.894;2023-04-10T05:17:50;100054.69;;;8.98;61.43
25947;BME280;13745;51.470;9.894;2023-04-10T05:20:56;100059.00;;;9.01;61.47
25947;BME280;13745;51.470;9.894;2023-04-10T05:24:05;100059.84;;;9.01;61.50
25947;BME280;13745;51.470;9.894;2023-04-10T05:26:57;100066.78;;;9.04;62.02
25947;BME280;13745;51.470;9.894;2023-04-10T05:29:49;100059.88;;;9.06;61.94
25947;BME280;13745;51.470;9.894;2023-04-10T05:32:52;100063.41;;;9.20;61.69
25947;BME280;13745;51.470;9.894;2023-04-10T05:35:41;100065.06;;;9.09;61.95
25947;BME280;13745;51.470;9.894;2023-04-10T05:38:37;100068.53;;;9.11;61.78
25947;BME280;13745;51.470;9.894;2023-04-10T05:41:33;100069.41;;;9.16;62.36
25947;BME280;13745;51.470;9.894;2023-04-10T05:44:38;100074.59;;;9.22;62.21
25947;BME280;13745;51.470;9.894;2023-04-10T05:47:41;100071.19;;;9.29;62.00
25947;BME280;13745;51.470;9.894;2023-04-10T05:50:42;100072.06;;;9.36;62.36
25947;BME280;13745;51.470;9.894;2023-04-10T05:53:49;100060.84;;;9.42;62.17
25947;BME280;13745;51.470;9.894;2023-04-10T05:56:57;100071.22;;;9.51;62.17
25947;BME280;13745;51.470;9.894;2023-04-10T06:00:01;100070.38;;;9.60;62.30
25947;BME280;13745;51.470;9.894;2023-04-10T06:02:58;100059.19;;;9.68;62.16
25947;BME280;13745;51.470;9.894;2023-04-10T06:05:46;100060.94;;;9.78;62.26
25947;BME280;13745;51.470;9.894;2023-04-10T06:08:31;100063.50;;;9.91;62.54
25947;BME280;13745;51.470;9.894;2023-04-10T06:11:18;100066.13;;;10.01;62.48
25947;BME280;13745;51.470;9.894;2023-04-10T06:14:08;100065.25;;;10.19;62.66
25947;BME280;13745;51.470;9.894;2023-04-10T06:16:58;100065.25;;;10.34;62.77
25947;BME280;13745;51.470;9.894;2023-04-10T06:19:43;100060.91;;;10.52;62.48
25947;BME280;13745;51.470;9.894;2023-04-10T06:22:28;100058.25;;;10.65;62.48
25947;BME280;13745;51.470;9.894;2023-04-10T06:25:13;100066.84;;;10.83;62.34
25947;BME280;13745;51.470;9.894;2023-04-10T06:28:00;100060.75;;;10.99;62.62
25947;BME280;13745;51.470;9.894;2023-04-10T06:30:45;100060.69;;;11.17;62.43
25947;BME280;13745;51.470;9.894;2023-04-10T06:33:31;100057.13;;;11.32;62.07
25947;BME280;13745;51.470;9.894;2023-04-10T06:36:19;100058.78;;;11.47;62.32
25947;BME280;13745;51.470;9.894;2023-04-10T06:39:11;100068.22;;;11.62;62.09
25947;BME280;13745;51.470;9.894;2023-04-10T06:41:56;100062.03;;;11.75;62.09
25947;BME280;13745;51.470;9.894;2023-04-10T06:45:12;100061.09;;;11.90;61.88
25947;BME280;13745;51.470;9.894;2023-04-10T06:47:58;100053.22;;;12.02;61.84
25947;BME280;13745;51.470;9.894;2023-04-10T06:50:42;100052.22;;;12.15;61.64
25947;BME280;13745;51.470;9.894;2023-04-10T06:53:28;100046.03;;;12.31;61.78
25947;BME280;13745;51.470;9.894;2023-04-10T06:56:14;100039.75;;;12.52;61.56
25947;BME280;13745;51.470;9.894;2023-04-10T06:58:59;100028.25;;;12.73;60.96
25947;BME280;13745;51.470;9.894;2023-04-10T07:01:46;100030.63;;;12.93;60.85
25947;BME280;13745;51.470;9.894;2023-04-10T07:04:31;100033.78;;;13.15;60.55
25947;BME280;13745;51.470;9.894;2023-04-10T07:07:16;100028.38;;;13.33;60.29
25947;BME280;13745;51.470;9.894;2023-04-10T07:10:02;100021.16;;;13.52;59.66
25947;BME280;13745;51.470;9.894;2023-04-10T07:12:47;100025.19;;;13.71;59.83
25947;BME280;13745;51.470;9.894;2023-04-10T07:15:32;100021.41;;;13.92;59.42
25947;BME280;13745;51.470;9.894;2023-04-10T07:18:18;100015.81;;;14.12;59.06
25947;BME280;13745;51.470;9.894;2023-04-10T07:21:09;100016.38;;;14.29;58.45
25947;BME280;13745;51.470;9.894;2023-04-10T07:23:54;100016.09;;;14.46;58.46
25947;BME280;13745;51.470;9.894;2023-04-10T07:26:39;100014.03;;;14.64;58.10
25947;BME280;13745;51.470;9.894;2023-04-10T07:29:24;100000.63;;;14.80;57.62
25947;BME280;13745;51.470;9.894;2023-04-10T07:32:10;100005.53;;;14.96;57.63
25947;BME280;13745;51.470;9.894;2023-04-10T07:34:56;100013.06;;;15.11;57.23
25947;BME280;13745;51.470;9.894;2023-04-10T07:37:41;100009.28;;;15.24;56.84
25947;BME280;13745;51.470;9.894;2023-04-10T07:40:27;99999.41;;;15.37;56.70
25947;BME280;13745;51.470;9.894;2023-04-10T07:43:12;99999.06;;;15.52;56.57
25947;BME280;13745;51.470;9.894;2023-04-10T07:45:57;99990.81;;;15.70;56.64
25947;BME280;13745;51.470;9.894;2023-04-10T07:48:42;99994.75;;;15.87;56.49
25947;BME280;13745;51.470;9.894;2023-04-10T07:51:28;99977.88;;;16.00;56.13
25947;BME280;13745;51.470;9.894;2023-04-10T07:54:14;99986.13;;;16.17;55.85
25947;BME280;13745;51.470;9.894;2023-04-10T07:56:59;99987.53;;;16.31;55.30
25947;BME280;13745;51.470;9.894;2023-04-10T07:59:44;99981.88;;;16.46;55.22
25947;BME280;13745;51.470;9.894;2023-04-10T08:02:29;99976.19;;;16.61;55.45
25947;BME280;13745;51.470;9.894;2023-04-10T08:05:14;99977.47;;;16.79;54.93
25947;BME280;13745;51.470;9.894;2023-04-10T08:08:00;99966.47;;;16.97;54.79
25947;BME280;13745;51.470;9.894;2023-04-10T08:10:45;99962.38;;;17.17;54.53
25947;BME280;13745;51.470;9.894;2023-04-10T08:13:31;99961.84;;;17.33;53.76
25947;BME280;13745;51.470;9.894;2023-04-10T08:16:17;99958.88;;;17.44;52.98
25947;BME280;13745;51.470;9.894;2023-04-10T08:19:03;99953.19;;;17.58;52.85
25947;BME280;13745;51.470;9.894;2023-04-10T08:21:48;99949.31;;;17.71;52.43
25947;BME280;13745;51.470;9.894;2023-04-10T08:24:34;99936.69;;;17.82;51.91
25947;BME280;13745;51.470;9.894;2023-04-10T08:27:19;99931.91;;;17.93;52.02
25947;BME280;13745;51.470;9.894;2023-04-10T08:30:05;99940.22;;;18.06;51.77
25947;BME280;13745;51.470;9.894;2023-04-10T08:32:51;99935.38;;;18.20;51.65
25947;BME280;13745;51.470;9.894;2023-04-10T08:35:35;99931.53;;;18.29;50.68
25947;BME280;13745;51.470;9.894;2023-04-10T08:38:20;99942.50;;;18.40;50.73
25947;BME280;13745;51.470;9.894;2023-04-10T08:41:10;99919.44;;;18.48;50.41
25947;BME280;13745;51.470;9.894;2023-04-10T08:43:56;99908.53;;;18.59;50.16
25947;BME280;13745;51.470;9.894;2023-04-10T08:46:42;99916.91;;;18.70;49.83
25947;BME280;13745;51.470;9.894;2023-04-10T08:49:30;99915.53;;;18.84;49.59
25947;BME280;13745;51.470;9.894;2023-04-10T08:52:23;99905.34;;;18.98;49.50
25947;BME280;13745;51.470;9.894;2023-04-10T08:55:11;99910.06;;;19.12;49.26
25947;BME280;13745;51.470;9.894;2023-04-10T08:57:58;99905.16;;;19.24;49.23
25947;BME280;13745;51.470;9.894;2023-04-10T09:00:44;99898.41;;;19.39;48.97
25947;BME280;13745;51.470;9.894;2023-04-10T09:03:29;99900.53;;;19.51;48.36
25947;BME280;13745;51.470;9.894;2023-04-10T09:06:15;99908.88;;;19.62;47.92
25947;BME280;13745;51.470;9.894;2023-04-10T09:09:00;99897.19;;;19.70;47.42
25947;BME280;13745;51.470;9.894;2023-04-10T09:12:03;99898.50;;;19.80;47.14
25947;BME280;13745;51.470;9.894;2023-04-10T09:14:50;99885.97;;;19.85;46.64
25947;BME280;13745;51.470;9.894;2023-04-10T09:17:36;99891.44;;;20.01;46.51
25947;BME280;13745;51.470;9.894;2023-04-10T09:20:22;99888.38;;;20.30;46.50
25947;BME280;13745;51.470;9.894;2023-04-10T09:23:18;99876.25;;;21.20;45.72
25947;BME280;13745;51.470;9.894;2023-04-10T09:26:24;99857.28;;;22.65;44.60
25947;BME280;13745;51.470;9.894;2023-04-10T09:29:10;99888.09;;;24.03;43.12
25947;BME280;13745;51.470;9.894;2023-04-10T09:31:56;99862.63;;;25.40;42.01
25947;BME280;13745;51.470;9.894;2023-04-10T09:34:52;99868.19;;;26.88;40.97
25947;BME280;13745;51.470;9.894;2023-04-10T09:37:38;99845.19;;;28.17;40.17
25947;BME280;13745;51.470;9.894;2023-04-10T09:40:24;99848.81;;;29.47;38.24
25947;BME280;13745;51.470;9.894;2023-04-10T09:43:22;99838.09;;;30.90;37.07
25947;BME280;13745;51.470;9.894;2023-04-10T09:46:07;99830.63;;;32.18;36.02
25947;BME280;13745;51.470;9.894;2023-04-10T09:48:54;99818.13;;;33.27;34.32
25947;BME280;13745;51.470;9.894;2023-04-10T09:51:39;99812.03;;;34.21;33.22
25947;BME280;13745;51.470;9.894;2023-04-10T09:54:34;99806.75;;;35.04;32.31
25947;BME280;13745;51.470;9.894;2023-04-10T09:57:22;99805.38;;;35.73;31.06
25947;BME280;13745;51.470;9.894;2023-04-10T10:00:08;99809.06;;;36.52;29.97
25947;BME280;13745;51.470;9.894;2023-04-10T10:02:56;99784.94;;;37.19;29.45
25947;BME280;13745;51.470;9.894;2023-04-10T10:05:46;99775.41;;;37.84;29.39
25947;BME280;13745;51.470;9.894;2023-04-10T10:08:32;99786.16;;;38.58;28.42
25947;BME280;13745;51.470;9.894;2023-04-10T10:11:20;99780.34;;;39.18;27.29
25947;BME280;13745;51.470;9.894;2023-04-10T10:14:11;99769.00;;;39.36;27.10
25947;BME280;13745;51.470;9.894;2023-04-10T10:17:00;99761.53;;;39.45;26.20
25947;BME280;13745;51.470;9.894;2023-04-10T10:19:52;99753.94;;;39.62;26.76
25947;BME280;13745;51.470;9.894;2023-04-10T10:22:42;99743.06;;;39.96;26.09
25947;BME280;13745;51.470;9.894;2023-04-10T10:25:28;99750.38;;;40.30;25.75
25947;BME280;13745;51.470;9.894;2023-04-10T10:28:15;99744.16;;;40.63;25.17
25947;BME280;13745;51.470;9.894;2023-04-10T10:31:02;99737.50;;;40.72;25.65
25947;BME280;13745;51.470;9.894;2023-04-10T10:33:49;99756.53;;;40.79;25.38
25947;BME280;13745;51.470;9.894;2023-04-10T10:36:35;99744.00;;;40.64;25.21
25947;BME280;13745;51.470;9.894;2023-04-10T10:39:27;99736.28;;;40.20;24.53
25947;BME280;13745;51.470;9.894;2023-04-10T10:42:22;99729.81;;;40.14;25.16
25947;BME280;13745;51.470;9.894;2023-04-10T10:45:12;99721.28;;;40.37;24.93
25947;BME280;13745;51.470;9.894;2023-04-10T10:47:59;99730.84;;;40.94;24.19
25947;BME280;13745;51.470;9.894;2023-04-10T10:50:52;99729.81;;;41.42;24.02
25947;BME280;13745;51.470;9.894;2023-04-10T10:53:42;99708.41;;;41.72;24.19
25947;BME280;13745;51.470;9.894;2023-04-10T10:56:36;99699.94;;;41.87;23.53
25947;BME280;13745;51.470;9.894;2023-04-10T10:59:54;99695.50;;;41.99;24.36
25947;BME280;13745;51.470;9.894;2023-04-10T11:02:40;99699.16;;;41.79;24.17
25947;BME280;13745;51.470;9.894;2023-04-10T11:05:47;99690.22;;;41.19;24.33
25947;BME280;13745;51.470;9.894;2023-04-10T11:08:40;99678.81;;;40.23;25.00
25947;BME280;13745;51.470;9.894;2023-04-10T11:11:28;99686.94;;;39.06;25.15
25947;BME280;13745;51.470;9.894;2023-04-10T11:14:15;99681.25;;;38.01;26.02
25947;BME280;13745;51.470;9.894;2023-04-10T11:17:01;99685.03;;;37.03;26.30
25947;BME280;13745;51.470;9.894;2023-04-10T11:19:59;99663.94;;;35.98;26.55
25947;BME280;13745;51.470;9.894;2023-04-10T11:23:07;99659.69;;;35.01;26.69
25947;BME280;13745;51.470;9.894;2023-04-10T11:25:53;99661.59;;;34.01;27.59
25947;BME280;13745;51.470;9.894;2023-04-10T11:28:38;99636.41;;;33.16;27.70
25947;BME280;13745;51.470;9.894;2023-04-10T11:31:25;99640.72;;;32.30;27.84
25947;BME280;13745;51.470;9.894;2023-04-10T11:34:11;99631.84;;;31.56;28.50
25947;BME280;13745;51.470;9.894;2023-04-10T11:36:59;99635.56;;;30.89;28.49
25947;BME280;13745;51.470;9.894;2023-04-10T11:39:45;99643.59;;;30.31;28.93
25947;BME280;13745;51.470;9.894;2023-04-10T11:42:30;99617.88;;;29.80;29.81
25947;BME280;13745;51.470;9.894;2023-04-10T11:45:26;99614.88;;;29.33;30.32
25947;BME280;13745;51.470;9.894;2023-04-10T11:48:13;99608.03;;;28.89;30.09
25947;BME280;13745;51.470;9.894;2023-04-10T11:51:05;99597.06;;;28.50;30.83
25947;BME280;13745;51.470;9.894;2023-04-10T11:54:03;99595.59;;;28.25;30.76
25947;BME280;13745;51.470;9.894;2023-04-10T11:56:56;99597.97;;;27.96;30.83
25947;BME280;13745;51.470;9.894;2023-04-10T11:59:48;99600.47;;;27.66;30.98
25947;BME280;13745;51.470;9.894;2023-04-10T12:02:34;99574.19;;;27.39;31.04
25947;BME280;13745;51.470;9.894;2023-04-10T12:05:20;99563.22;;;27.10;31.41
25947;BME280;13745;51.470;9.894;2023-04-10T12:08:05;99567.50;;;26.88;31.62
25947;BME280;13745;51.470;9.894;2023-04-10T12:10:51;99565.69;;;26.78;32.43
25947;BME280;13745;51.470;9.894;2023-04-10T12:13:37;99574.63;;;26.77;32.80
25947;BME280;13745;51.470;9.894;2023-04-10T12:16:23;99563.75;;;26.69;32.29
25947;BME280;13745;51.470;9.894;2023-04-10T12:19:10;99559.59;;;26.53;32.45
25947;BME280;13745;51.470;9.894;2023-04-10T12:21:57;99560.63;;;26.40;32.42
25947;BME280;13745;51.470;9.894;2023-04-10T12:24:45;99545.72;;;26.26;32.62
25947;BME280;13745;51.470;9.894;2023-04-10T12:27:30;99533.00;;;26.18;33.18
25947;BME280;13745;51.470;9.894;2023-04-10T12:30:15;99536.38;;;26.20;33.08
25947;BME280;13745;51.470;9.894;2023-04-10T12:33:00;99534.97;;;26.27;33.15
25947;BME280;13745;51.470;9.894;2023-04-10T12:35:49;99534.00;;;26.28;33.34
25947;BME280;13745;51.470;9.894;2023-04-10T12:38:38;99528.91;;;26.25;33.27
25947;BME280;13745;51.470;9.894;2023-04-10T12:41:24;99544.03;;;26.25;33.05
25947;BME280;13745;51.470;9.894;2023-04-10T12:44:11;99534.94;;;26.16;32.95
25947;BME280;13745;51.470;9.894;2023-04-10T12:46:58;99531.25;;;26.06;32.68
25947;BME280;13745;51.470;9.894;2023-04-10T12:50:05;99525.44;;;26.01;32.46
25947;BME280;13745;51.470;9.894;2023-04-10T12:53:01;99501.84;;;25.85;33.02
25947;BME280;13745;51.470;9.894;2023-04-10T12:56:00;99503.47;;;25.75;33.00
25947;BME280;13745;51.470;9.894;2023-04-10T12:58:45;99511.88;;;25.69;33.50
25947;BME280;13745;51.470;9.894;2023-04-10T13:01:30;99496.25;;;25.64;33.39
25947;BME280;13745;51.470;9.894;2023-04-10T13:04:15;99507.13;;;25.61;33.15
25947;BME280;13745;51.470;9.894;2023-04-10T13:07:01;99503.00;;;25.57;33.91
25947;BME280;13745;51.470;9.894;2023-04-10T13:09:46;99508.19;;;25.59;34.10
25947;BME280;13745;51.470;9.894;2023-04-10T13:12:33;99501.75;;;25.50;33.60
25947;BME280;13745;51.470;9.894;2023-04-10T13:15:19;99499.84;;;25.39;33.53
25947;BME280;13745;51.470;9.894;2023-04-10T13:18:04;99489.06;;;25.30;33.41
25947;BME280;13745;51.470;9.894;2023-04-10T13:20:50;99479.75;;;25.24;33.80
25947;BME280;13745;51.470;9.894;2023-04-10T13:23:35;99481.03;;;25.18;33.75
25947;BME280;13745;51.470;9.894;2023-04-10T13:26:20;99470.97;;;25.11;33.74
25947;BME280;13745;51.470;9.894;2023-04-10T13:29:06;99463.56;;;25.03;34.08
25947;BME280;13745;51.470;9.894;2023-04-10T13:31:52;99463.00;;;24.98;34.17
25947;BME280;13745;51.470;9.894;2023-04-10T13:34:36;99456.53;;;24.89;34.18
25947;BME280;13745;51.470;9.894;2023-04-10T13:37:21;99449.97;;;24.82;34.75
25947;BME280;13745;51.470;9.894;2023-04-10T13:40:08;99448.50;;;24.78;34.97
25947;BME280;13745;51.470;9.894;2023-04-10T13:42:53;99444.41;;;24.74;34.64
25947;BME280;13745;51.470;9.894;2023-04-10T13:45:40;99440.38;;;24.69;34.53
25947;BME280;13745;51.470;9.894;2023-04-10T13:48:25;99439.72;;;24.65;34.41
25947;BME280;13745;51.470;9.894;2023-04-10T13:51:10;99429.97;;;24.65;35.31
25947;BME280;13745;51.470;9.894;2023-04-10T13:53:55;99424.47;;;24.69;35.25
25947;BME280;13745;51.470;9.894;2023-04-10T13:56:42;99406.31;;;24.75;35.35
25947;BME280;13745;51.470;9.894;2023-04-10T13:59:27;99412.84;;;24.82;35.54
25947;BME280;13745;51.470;9.894;2023-04-10T14:02:13;99395.34;;;24.80;35.22
25947;BME280;13745;51.470;9.894;2023-04-10T14:04:58;99401.84;;;24.76;35.43
25947;BME280;13745;51.470;9.894;2023-04-10T14:07:43;99392.75;;;24.67;34.97
25947;BME280;13745;51.470;9.894;2023-04-10T14:10:28;99394.88;;;24.62;35.19
25947;BME280;13745;51.470;9.894;2023-04-10T14:13:14;99383.84;;;24.55;34.81
25947;BME280;13745;51.470;9.894;2023-04-10T14:15:59;99376.56;;;24.46;35.53
25947;BME280;13745;51.470;9.894;2023-04-10T14:18:47;99369.25;;;24.37;35.72
25947;BME280;13745;51.470;9.894;2023-04-10T14:21:33;99366.91;;;24.32;36.27
25947;BME280;13745;51.470;9.894;2023-04-10T14:24:19;99369.88;;;24.28;35.46
25947;BME280;13745;51.470;9.894;2023-04-10T14:27:04;99356.63;;;24.15;35.59
25947;BME280;13745;51.470;9.894;2023-04-10T14:29:49;99351.22;;;24.04;35.90
25947;BME280;13745;51.470;9.894;2023-04-10T14:32:35;99343.38;;;23.90;35.93
25947;BME280;13745;51.470;9.894;2023-04-10T14:35:21;99334.25;;;23.81;36.03
25947;BME280;13745;51.470;9.894;2023-04-10T14:38:06;99340.84;;;23.75;35.63
25947;BME280;13745;51.470;9.894;2023-04-10T14:40:51;99336.81;;;23.70;36.46
25947;BME280;13745;51.470;9.894;2023-04-10T14:43:36;99329.72;;;23.70;35.75
25947;BME280;13745;51.470;9.894;2023-04-10T14:46:21;99312.97;;;23.70;35.56
25947;BME280;13745;51.470;9.894;2023-04-10T14:49:08;99313.22;;;23.67;36.40
25947;BME280;13745;51.470;9.894;2023-04-10T14:51:55;99300.81;;;23.67;35.94
25947;BME280;13745;51.470;9.894;2023-04-10T14:54:40;99308.44;;;23.72;36.19